Time;durP1;ratioP1;P1;durP2;ratioP2;P2;SDS_P1;SDS_P2;PMS_P1;PMS_P2;Temp;Humidity;BMP_temperature;BMP_pressure;BME280_temperature;BME280_humidity;BME280_pressure;Samples;Min_cycle;Max_cycle;Signal;HPM_P1;HPM_P2
2022/06/12 00:00:57;;;;;;;8.75;2.60;;;14.50;99.90;;;;;;4846100;29;20049;-85
2022/06/12 00:03:25;;;;;;;9.45;2.97;;;14.40;99.90;;;;;;4848863;29;20485;-85
2022/06/12 00:05:54;;;;;;;8.93;2.67;;;14.40;99.90;;;;;;4859861;29;20100;-85
2022/06/12 00:08:21;;;;;;;14.55;3.45;;;14.40;99.90;;;;;;4846225;29;20089;-85
2022/06/12 00:10:50;;;;;;;8.70;2.80;;;14.40;99.90;;;;;;4847012;29;20045;-85
2022/06/12 00:13:22;;;;;;;13.52;3.45;;;14.40;99.90;;;;;;4880494;29;20093;-85
2022/06/12 00:15:48;;;;;;;12.02;3.58;;;14.30;99.90;;;;;;4862226;29;20059;-85
2022/06/12 00:18:14;;;;;;;12.93;3.40;;;14.20;99.90;;;;;;4861552;29;20564;-85
2022/06/12 00:20:40;;;;;;;13.90;3.60;;;14.10;99.90;;;;;;4846383;29;20045;-85
2022/06/12 00:23:09;;;;;;;11.95;3.35;;;14.00;99.90;;;;;;4861297;29;20048;-85
2022/06/12 00:25:35;;;;;;;13.20;3.63;;;14.00;99.90;;;;;;4860723;29;20041;-85
2022/06/12 00:28:01;;;;;;;13.27;3.70;;;13.90;99.90;;;;;;4846953;29;20045;-85
2022/06/12 00:30:27;;;;;;;10.68;2.95;;;13.90;99.90;;;;;;4831244;29;20153;-85
2022/06/12 00:32:55;;;;;;;10.45;3.30;;;13.90;99.90;;;;;;4830958;29;20120;-85
2022/06/12 00:35:34;;;;;;;10.75;3.10;;;13.90;99.90;;;;;;4861237;29;20041;-85
2022/06/12 00:38:00;;;;;;;10.07;3.15;;;13.90;99.90;;;;;;4845792;29;20052;-85
2022/06/12 00:40:26;;;;;;;11.73;3.40;;;13.90;99.90;;;;;;4831168;29;20513;-85
2022/06/12 00:42:56;;;;;;;13.70;3.92;;;13.80;99.90;;;;;;4830820;29;20105;-85
2022/06/12 00:45:46;;;;;;;11.98;3.60;;;13.70;99.90;;;;;;4846361;29;20505;-85
2022/06/12 00:48:33;;;;;;;13.02;4.25;;;13.60;99.90;;;;;;4846247;29;20037;-85
2022/06/12 00:51:06;;;;;;;12.43;4.00;;;13.60;99.90;;;;;;4845316;29;20075;-85
2022/06/12 00:53:43;;;;;;;11.07;3.60;;;13.60;99.90;;;;;;4845720;29;20046;-85
2022/06/12 00:56:19;;;;;;;10.43;3.70;;;13.60;99.90;;;;;;4833434;29;20382;-85
2022/06/12 00:58:51;;;;;;;14.80;4.00;;;13.60;99.90;;;;;;4861370;29;20053;-85
2022/06/12 01:01:36;;;;;;;12.30;4.50;;;13.60;99.90;;;;;;4846037;29;20125;-85
2022/06/12 01:06:49;;;;;;;13.13;4.47;;;13.50;99.90;;;;;;4861346;29;20497;-85
2022/06/12 01:09:22;;;;;;;13.45;3.80;;;13.50;99.90;;;;;;4849126;29;20489;-85
2022/06/12 01:11:49;;;;;;;12.98;3.83;;;13.50;99.90;;;;;;4864153;29;20044;-85
2022/06/12 01:14:18;;;;;;;12.98;4.00;;;13.40;99.90;;;;;;4846593;29;20560;-85
2022/06/12 01:16:45;;;;;;;12.88;4.18;;;13.40;99.90;;;;;;4848686;29;20076;-85
2022/06/12 01:19:34;;;;;;;12.35;4.00;;;13.30;99.90;;;;;;4848859;29;20045;-86
2022/06/12 01:22:38;;;;;;;11.05;3.53;;;13.30;99.90;;;;;;4847731;29;20051;-86
2022/06/12 01:25:13;;;;;;;15.60;4.50;;;13.30;99.90;;;;;;4863825;29;20250;-86
2022/06/12 01:27:57;;;;;;;10.63;4.03;;;13.30;99.90;;;;;;4853426;29;20050;-86
2022/06/12 01:30:57;;;;;;;11.32;3.67;;;13.30;99.90;;;;;;4866507;29;20041;-85
2022/06/12 01:33:55;;;;;;;13.13;4.18;;;13.30;99.90;;;;;;4848415;29;20559;-85
2022/06/12 01:36:25;;;;;;;13.55;4.20;;;13.30;99.90;;;;;;4785190;29;20131;-85
2022/06/12 01:39:27;;;;;;;11.95;4.45;;;13.20;99.90;;;;;;4864013;29;20060;-85
2022/06/12 01:42:07;;;;;;;11.27;3.60;;;13.10;99.90;;;;;;4843969;29;20045;-85
2022/06/12 01:44:59;;;;;;;10.70;3.88;;;13.10;99.90;;;;;;4849053;29;20359;-85
2022/06/12 01:47:29;;;;;;;9.18;3.53;;;13.10;99.90;;;;;;4848549;29;20037;-85
2022/06/12 01:50:21;;;;;;;10.65;3.72;;;13.10;99.90;;;;;;4857865;29;20446;-85
2022/06/12 01:53:05;;;;;;;12.00;4.30;;;13.10;99.90;;;;;;4890569;29;20053;-85
2022/06/12 01:55:59;;;;;;;9.85;4.50;;;13.10;99.90;;;;;;4863691;29;20519;-85
2022/06/12 01:58:37;;;;;;;13.27;4.03;;;13.10;99.90;;;;;;4851513;29;20540;-85
2022/06/12 02:01:15;;;;;;;10.77;3.67;;;13.10;99.90;;;;;;4835099;29;20045;-85
2022/06/12 02:03:53;;;;;;;12.88;4.80;;;13.10;99.90;;;;;;4862600;29;20041;-85
2022/06/12 02:06:26;;;;;;;12.70;4.38;;;13.00;99.90;;;;;;4846927;29;20049;-85
2022/06/12 02:08:58;;;;;;;10.98;3.95;;;12.90;99.90;;;;;;4863317;29;20410;-85
2022/06/12 02:14:27;;;;;;;10.90;3.45;;;13.00;99.90;;;;;;4863358;29;20060;-85
2022/06/12 02:16:57;;;;;;;14.38;4.13;;;13.00;99.90;;;;;;4847711;29;20044;-85
2022/06/12 02:19:31;;;;;;;12.55;3.78;;;13.00;99.90;;;;;;4878904;29;20481;-85
2022/06/12 02:22:08;;;;;;;13.98;4.30;;;13.00;99.90;;;;;;4846616;29;20513;-85
2022/06/12 02:24:51;;;;;;;11.18;3.85;;;12.90;99.90;;;;;;4847550;29;20285;-85
2022/06/12 02:27:42;;;;;;;12.32;4.65;;;12.90;99.90;;;;;;4847699;29;20397;-85
2022/06/12 02:30:15;;;;;;;10.90;3.97;;;12.80;99.90;;;;;;4837208;29;20068;-85
2022/06/12 02:32:44;;;;;;;10.23;4.15;;;12.80;99.90;;;;;;4863127;29;20382;-85
2022/06/12 02:35:16;;;;;;;9.90;3.85;;;12.70;99.90;;;;;;4846847;29;20262;-85
2022/06/12 02:37:51;;;;;;;10.35;3.92;;;12.80;99.90;;;;;;4844003;29;20492;-85
2022/06/12 02:40:25;;;;;;;10.43;3.40;;;12.80;99.90;;;;;;4875856;29;20037;-85
2022/06/12 02:42:54;;;;;;;9.77;3.85;;;12.80;99.90;;;;;;4847742;29;20041;-85
2022/06/12 02:45:34;;;;;;;10.52;3.90;;;12.80;99.90;;;;;;4846977;29;20036;-85
2022/06/12 02:48:00;;;;;;;10.82;4.00;;;12.80;99.90;;;;;;4862433;29;20041;-85
2022/06/12 02:50:31;;;;;;;9.68;3.40;;;12.70;99.90;;;;;;4846611;29;20421;-85
2022/06/12 02:53:20;;;;;;;10.20;3.40;;;12.60;99.90;;;;;;4849150;29;20144;-85
2022/06/12 02:55:58;;;;;;;11.38;3.60;;;12.70;99.90;;;;;;4818959;29;20132;-85
2022/06/12 02:58:53;;;;;;;10.10;3.40;;;12.60;99.90;;;;;;4847184;29;20045;-85
2022/06/12 03:01:23;;;;;;;10.23;3.35;;;12.60;99.90;;;;;;4797319;29;20550;-85
2022/06/12 03:03:59;;;;;;;9.70;3.60;;;12.60;99.90;;;;;;4846959;29;20535;-85
2022/06/12 03:06:27;;;;;;;10.25;3.38;;;12.70;99.90;;;;;;4846037;29;20072;-85
2022/06/12 03:08:56;;;;;;;10.05;3.65;;;12.60;99.90;;;;;;4862519;29;20053;-85
2022/06/12 03:11:36;;;;;;;13.10;4.05;;;12.60;99.90;;;;;;4862367;29;20507;-85
2022/06/12 03:14:08;;;;;;;10.25;3.58;;;12.60;99.90;;;;;;4851721;29;20049;-85
2022/06/12 03:16:37;;;;;;;10.70;3.83;;;12.50;99.90;;;;;;4875692;29;20049;-85
2022/06/12 03:19:19;;;;;;;8.65;3.40;;;12.50;99.90;;;;;;4877904;29;20474;-85
2022/06/12 03:22:10;;;;;;;9.90;3.50;;;12.50;99.90;;;;;;4845717;29;20499;-85
2022/06/12 03:24:54;;;;;;;12.60;3.92;;;12.50;99.90;;;;;;4849159;29;20054;-85
2022/06/12 03:27:45;;;;;;;11.30;3.83;;;12.40;99.90;;;;;;4877488;29;20033;-85
2022/06/12 03:30:11;;;;;;;11.65;3.03;;;12.30;99.90;;;;;;4857794;29;20070;-85
2022/06/12 03:33:15;;;;;;;11.07;3.70;;;12.20;99.90;;;;;;4868727;29;20436;-85
2022/06/12 03:35:50;;;;;;;10.82;3.80;;;12.20;99.90;;;;;;4813073;29;20515;-85
2022/06/12 03:38:27;;;;;;;9.05;3.50;;;12.20;99.90;;;;;;4857888;29;20084;-85
2022/06/12 03:41:02;;;;;;;7.80;3.00;;;12.20;99.90;;;;;;4850407;29;20124;-85
2022/06/12 03:43:40;;;;;;;8.82;3.08;;;12.20;99.90;;;;;;4850132;29;20192;-85
2022/06/12 03:46:21;;;;;;;9.13;3.28;;;12.30;99.90;;;;;;4850799;29;20476;-85
2022/06/12 03:49:00;;;;;;;12.77;3.25;;;12.30;99.90;;;;;;4865392;29;20036;-85
2022/06/12 03:51:52;;;;;;;10.63;3.05;;;12.30;99.90;;;;;;4858149;29;20182;-85
2022/06/12 03:54:28;;;;;;;10.77;3.30;;;12.30;99.90;;;;;;4865472;29;20049;-85
2022/06/12 04:00:35;;;;;;;8.40;2.85;;;12.30;99.90;;;;;;4871488;29;20568;-85
2022/06/12 04:03:16;;;;;;;11.45;3.70;;;12.10;99.90;;;;;;4850001;29;20524;-85
2022/06/12 04:05:56;;;;;;;10.10;3.30;;;12.20;99.90;;;;;;4859164;29;20040;-85
2022/06/12 04:08:25;;;;;;;13.75;3.80;;;12.20;99.90;;;;;;4865320;29;20508;-85
2022/06/12 04:10:53;;;;;;;11.65;3.42;;;12.10;99.90;;;;;;4865233;29;20049;-84
2022/06/12 04:13:20;;;;;;;11.93;3.80;;;12.10;99.90;;;;;;4834243;29;20053;-84
2022/06/12 04:15:54;;;;;;;11.07;3.60;;;12.10;99.90;;;;;;4849860;29;20045;-84
2022/06/12 04:18:21;;;;;;;11.27;3.53;;;12.10;99.90;;;;;;4847051;29;20042;-84
2022/06/12 04:20:55;;;;;;;10.10;3.58;;;12.10;99.90;;;;;;4865185;29;20037;-84
2022/06/12 04:23:31;;;;;;;10.48;3.53;;;12.20;99.90;;;;;;4864238;29;20045;-84
2022/06/12 04:26:41;;;;;;;11.23;3.80;;;12.20;99.90;;;;;;4849989;29;20382;-84
2022/06/12 04:29:13;;;;;;;12.75;3.50;;;12.30;99.90;;;;;;4839586;29;20053;-84
2022/06/12 04:31:49;;;;;;;9.65;3.50;;;12.40;99.90;;;;;;4864835;29;20100;-84
2022/06/12 04:34:28;;;;;;;10.32;3.60;;;12.40;99.90;;;;;;4865068;29;20063;-84
2022/06/12 04:37:00;;;;;;;10.10;3.30;;;12.40;99.90;;;;;;4862067;29;20127;-84
2022/06/12 04:39:30;;;;;;;11.25;3.30;;;12.50;99.90;;;;;;4856479;29;20041;-84
2022/06/12 04:41:57;;;;;;;10.27;3.60;;;12.50;99.90;;;;;;4849142;29;20044;-84
2022/06/12 04:44:23;;;;;;;10.07;3.40;;;12.60;99.90;;;;;;4864602;29;20045;-84
2022/06/12 04:46:51;;;;;;;12.90;3.75;;;12.80;99.90;;;;;;4818559;29;20132;-84
2022/06/12 04:49:21;;;;;;;12.20;3.53;;;12.90;99.90;;;;;;4849140;29;20037;-84
2022/06/12 04:51:48;;;;;;;10.57;3.50;;;13.00;99.90;;;;;;4879572;29;20497;-84
2022/06/12 04:54:15;;;;;;;11.30;3.20;;;13.30;99.90;;;;;;4864371;29;20109;-84
2022/06/12 04:56:41;;;;;;;11.15;3.25;;;13.60;99.90;;;;;;4834394;29;20037;-84
2022/06/12 04:59:08;;;;;;;10.27;3.08;;;14.00;99.90;;;;;;4849040;29;20063;-84
2022/06/12 05:01:34;;;;;;;10.68;3.20;;;14.30;99.90;;;;;;4864219;29;20048;-84
2022/06/12 05:04:01;;;;;;;12.05;3.28;;;14.90;99.90;;;;;;4849135;29;20049;-84
2022/06/12 05:06:28;;;;;;;10.73;2.90;;;15.40;99.90;;;;;;4832946;29;20097;-84
2022/06/12 05:08:54;;;;;;;11.60;3.03;;;16.10;99.90;;;;;;4848954;29;20505;-84
2022/06/12 05:11:20;;;;;;;9.00;3.20;;;16.50;99.90;;;;;;4848533;29;20127;-84
2022/06/12 05:13:46;;;;;;;11.57;3.20;;;16.80;99.90;;;;;;4849317;29;20056;-84
2022/06/12 05:16:36;;;;;;;11.93;3.22;;;17.00;99.90;;;;;;4834144;29;20045;-84
2022/06/12 05:19:04;;;;;;;12.80;3.10;;;17.50;99.90;;;;;;4849036;29;20044;-84
2022/06/12 05:21:31;;;;;;;10.98;2.90;;;17.60;99.90;;;;;;4862980;29;21399;-84
2022/06/12 05:23:58;;;;;;;10.70;2.80;;;17.80;99.90;;;;;;4825391;29;20045;-84
2022/06/12 05:26:25;;;;;;;8.88;2.85;;;18.10;99.90;;;;;;4848430;29;20048;-84
2022/06/12 05:28:52;;;;;;;11.23;3.10;;;18.50;99.90;;;;;;4879598;29;20377;-84
2022/06/12 05:31:18;;;;;;;8.77;2.75;;;18.50;99.90;;;;;;4864137;29;20041;-84
2022/06/12 05:33:45;;;;;;;11.57;3.08;;;19.30;99.90;;;;;;4848363;29;20044;-84
2022/06/12 05:36:12;;;;;;;11.80;2.85;;;20.00;99.90;;;;;;4848376;29;20049;-84
2022/06/12 05:38:39;;;;;;;11.07;3.00;;;20.30;99.90;;;;;;4817691;29;20128;-84
2022/06/12 05:41:05;;;;;;;10.18;2.70;;;20.70;99.90;;;;;;4848344;29;20045;-84
2022/06/12 05:43:30;;;;;;;9.80;2.88;;;21.10;99.90;;;;;;4832787;29;20037;-85
2022/06/12 05:45:56;;;;;;;9.68;3.25;;;21.10;98.60;;;;;;4833030;29;20053;-85
2022/06/12 05:48:23;;;;;;;10.40;2.97;;;20.90;98.20;;;;;;4879034;29;20401;-85
2022/06/12 05:50:56;;;;;;;12.00;2.90;;;20.90;98.70;;;;;;4847986;29;20560;-85
2022/06/12 05:53:24;;;;;;;10.95;2.80;;;21.50;97.00;;;;;;4863358;29;20485;-85
2022/06/12 05:55:51;;;;;;;13.63;3.45;;;21.70;98.00;;;;;;4848077;29;20081;-85
2022/06/12 05:58:19;;;;;;;12.07;3.28;;;21.70;96.80;;;;;;4863652;29;20120;-85
2022/06/12 06:00:46;;;;;;;12.68;3.28;;;22.40;95.60;;;;;;4832187;29;20041;-85
2022/06/12 06:03:12;;;;;;;10.57;3.17;;;22.70;95.10;;;;;;4848193;29;20096;-85
2022/06/12 06:05:39;;;;;;;11.75;3.03;;;22.70;96.10;;;;;;4862676;29;20044;-85
2022/06/12 06:08:08;;;;;;;14.07;3.35;;;22.80;93.10;;;;;;4847274;29;20505;-85
2022/06/12 06:10:35;;;;;;;11.05;3.08;;;22.90;94.00;;;;;;4848184;29;20044;-85
2022/06/12 06:13:01;;;;;;;12.98;3.30;;;23.00;93.50;;;;;;4862835;29;20105;-85
2022/06/12 06:15:27;;;;;;;12.68;3.33;;;23.40;92.90;;;;;;4847889;29;20067;-85
2022/06/12 06:17:53;;;;;;;12.38;3.67;;;23.60;92.20;;;;;;4863010;29;20042;-85
2022/06/12 06:20:26;;;;;;;17.15;3.92;;;23.20;90.90;;;;;;4832147;29;20052;-85
2022/06/12 06:22:53;;;;;;;17.95;3.70;;;23.20;92.20;;;;;;4846902;29;20052;-85
2022/06/12 06:25:20;;;;;;;14.63;3.55;;;23.40;92.80;;;;;;4847897;29;20084;-85
2022/06/12 06:27:46;;;;;;;13.55;3.70;;;23.40;93.50;;;;;;4832186;29;20033;-85
2022/06/12 06:30:14;;;;;;;13.40;3.60;;;23.30;93.80;;;;;;4847471;29;20045;-85
2022/06/12 06:32:40;;;;;;;14.98;3.63;;;23.50;93.70;;;;;;4832457;29;20127;-85
2022/06/12 06:35:06;;;;;;;15.43;3.92;;;23.20;92.70;;;;;;4846915;29;20115;-85
2022/06/12 06:37:33;;;;;;;13.98;3.90;;;22.60;93.90;;;;;;4862590;29;20037;-85
2022/06/12 06:39:59;;;;;;;14.52;3.78;;;22.70;96.00;;;;;;4862372;29;20496;-85
2022/06/12 06:42:25;;;;;;;13.77;3.90;;;23.10;95.40;;;;;;4832385;29;20037;-86
2022/06/12 06:47:36;;;;;;;15.57;4.07;;;22.90;96.50;;;;;;4851470;29;20077;-85
2022/06/12 06:50:07;;;;;;;14.05;3.92;;;23.00;95.50;;;;;;4846905;29;20083;-85
2022/06/12 06:52:34;;;;;;;14.80;4.10;;;23.30;94.20;;;;;;4846109;29;20383;-85
2022/06/12 06:55:00;;;;;;;16.75;4.15;;;23.10;97.20;;;;;;4867500;29;20497;-85
2022/06/12 06:57:26;;;;;;;15.52;4.03;;;23.30;95.50;;;;;;4877545;29;20493;-85
2022/06/12 06:59:52;;;;;;;17.60;4.55;;;23.10;96.00;;;;;;4847022;29;20036;-85
2022/06/12 07:02:18;;;;;;;19.23;4.53;;;23.20;95.80;;;;;;4831828;29;20073;-85
2022/06/12 07:04:44;;;;;;;17.88;4.40;;;22.80;97.20;;;;;;4846397;29;20048;-85
2022/06/12 07:07:10;;;;;;;17.65;4.55;;;22.70;97.50;;;;;;4831123;29;20057;-85
2022/06/12 07:09:38;;;;;;;16.92;4.20;;;22.70;97.90;;;;;;4830620;29;20879;-85
2022/06/12 07:12:04;;;;;;;16.00;4.25;;;22.90;97.70;;;;;;4846142;29;20441;-85
2022/06/12 07:14:30;;;;;;;15.65;4.20;;;23.30;97.30;;;;;;4829931;29;20097;-85
2022/06/12 07:16:56;;;;;;;17.02;4.53;;;23.40;97.20;;;;;;4876593;29;20037;-85
2022/06/12 07:19:22;;;;;;;17.52;4.32;;;23.20;97.30;;;;;;4861581;29;20124;-85
2022/06/12 07:21:48;;;;;;;18.23;4.10;;;23.40;98.40;;;;;;4818890;29;20420;-85
2022/06/12 07:24:14;;;;;;;18.13;4.72;;;23.60;97.40;;;;;;4831066;29;20056;-85
2022/06/12 07:26:43;;;;;;;19.27;4.53;;;23.40;97.10;;;;;;4845576;29;20437;-85
2022/06/12 07:29:09;;;;;;;16.35;4.55;;;23.20;98.80;;;;;;4861370;29;20080;-85
2022/06/12 07:31:36;;;;;;;17.35;4.05;;;23.40;98.10;;;;;;4861542;29;20489;-85
2022/06/12 07:34:02;;;;;;;16.38;4.18;;;23.30;98.30;;;;;;4846038;29;20101;-85
2022/06/12 07:36:29;;;;;;;19.23;4.40;;;23.90;96.40;;;;;;4829766;29;20053;-85
2022/06/12 07:38:56;;;;;;;17.02;4.53;;;23.90;94.10;;;;;;4830646;29;20037;-85
2022/06/12 07:41:23;;;;;;;19.10;4.55;;;23.80;94.90;;;;;;4820895;29;20158;-85
2022/06/12 07:43:49;;;;;;;17.08;4.65;;;23.90;94.00;;;;;;4858115;29;20520;-85
2022/06/12 07:46:17;;;;;;;17.65;4.40;;;23.90;93.90;;;;;;4830823;29;20048;-85
2022/06/12 07:48:45;;;;;;;16.13;4.60;;;23.90;94.00;;;;;;4845526;29;20041;-85
2022/06/12 07:51:17;;;;;;;17.40;4.55;;;24.10;94.10;;;;;;4845271;29;20033;-85
2022/06/12 07:53:44;;;;;;;15.90;4.57;;;24.10;94.90;;;;;;4860683;29;20068;-85
2022/06/12 07:56:10;;;;;;;16.40;4.60;;;24.20;94.90;;;;;;4845397;29;20048;-85
2022/06/12 07:58:36;;;;;;;18.67;4.68;;;24.50;93.60;;;;;;4845677;29;20131;-85
2022/06/12 08:01:05;;;;;;;17.35;4.47;;;24.30;93.80;;;;;;4860494;29;20078;-85
2022/06/12 08:03:31;;;;;;;17.77;4.32;;;24.20;96.60;;;;;;4844447;29;20045;-85
2022/06/12 08:05:58;;;;;;;15.65;4.30;;;24.60;94.60;;;;;;4855516;29;20101;-85
2022/06/12 08:08:25;;;;;;;17.83;4.72;;;24.70;94.00;;;;;;4785306;29;1168994;-85
2022/06/12 08:10:51;;;;;;;15.50;4.10;;;24.60;94.60;;;;;;4855491;29;20409;-85
2022/06/12 08:13:17;;;;;;;17.25;4.28;;;24.80;93.50;;;;;;4861410;29;20154;-86
2022/06/12 08:15:46;;;;;;;16.10;4.70;;;24.80;93.50;;;;;;4846498;29;20109;-85
2022/06/12 08:18:12;;;;;;;16.75;4.32;;;24.80;92.80;;;;;;4861673;29;20052;-85
2022/06/12 08:20:45;;;;;;;16.67;4.22;;;24.70;94.30;;;;;;4830974;29;20087;-85
2022/06/12 08:23:27;;;;;;;18.75;4.40;;;24.70;94.90;;;;;;4862267;29;20049;-85
2022/06/12 08:26:16;;;;;;;15.15;4.18;;;24.70;92.50;;;;;;4864875;29;20069;-85
2022/06/12 08:29:10;;;;;;;16.90;4.35;;;24.70;93.60;;;;;;4865274;29;20049;-85
2022/06/12 08:31:39;;;;;;;18.33;4.72;;;24.70;93.70;;;;;;4848767;29;20060;-85
2022/06/12 08:34:10;;;;;;;13.35;3.85;;;24.40;92.80;;;;;;4865050;29;20045;-85
2022/06/12 08:36:36;;;;;;;16.98;4.72;;;24.30;96.30;;;;;;4863653;29;20053;-86
2022/06/12 08:39:04;;;;;;;14.35;4.30;;;24.50;92.30;;;;;;4849469;29;20052;-86
2022/06/12 08:41:41;;;;;;;16.85;4.75;;;24.30;93.00;;;;;;4849228;29;20132;-85
2022/06/12 08:44:19;;;;;;;15.45;4.57;;;24.70;95.00;;;;;;4849485;29;20516;-85
2022/06/12 08:46:54;;;;;;;15.43;4.25;;;24.70;93.30;;;;;;4879731;29;20072;-85
2022/06/12 08:49:59;;;;;;;15.43;4.30;;;24.50;92.10;;;;;;4864846;29;20033;-85
2022/06/12 08:52:44;;;;;;;15.32;4.05;;;24.40;95.00;;;;;;4850886;29;20038;-85
2022/06/12 08:55:42;;;;;;;13.80;4.00;;;24.50;95.20;;;;;;4840858;29;20037;-85
2022/06/12 08:58:21;;;;;;;12.95;3.95;;;24.40;88.90;;;;;;4845661;29;20053;-85
2022/06/12 09:00:47;;;;;;;14.25;4.00;;;24.40;93.00;;;;;;4848704;29;20052;-85
2022/06/12 09:03:18;;;;;;;13.38;3.50;;;24.50;93.20;;;;;;4864290;29;20048;-85
2022/06/12 09:05:59;;;;;;;13.15;3.30;;;24.70;91.80;;;;;;4848785;29;20511;-85
2022/06/12 09:09:00;;;;;;;14.23;3.72;;;25.00;91.00;;;;;;4851846;29;20049;-85
2022/06/12 09:11:53;;;;;;;12.15;3.60;;;25.70;85.50;;;;;;4825505;29;20493;-86
2022/06/12 09:15:10;;;;;;;13.00;3.67;;;25.70;82.20;;;;;;4838925;29;20069;-86
2022/06/12 09:17:55;;;;;;;14.75;4.35;;;25.50;74.40;;;;;;4811248;29;20046;-86
2022/06/12 09:20:39;;;;;;;15.75;4.40;;;25.20;80.80;;;;;;4882800;29;20041;-85
2022/06/12 09:23:30;;;;;;;14.57;4.05;;;24.80;83.80;;;;;;4848224;29;20133;-85
2022/06/12 09:26:03;;;;;;;14.75;4.00;;;25.00;93.40;;;;;;4855962;29;20068;-85
2022/06/12 09:28:38;;;;;;;12.77;4.07;;;25.00;91.10;;;;;;4893369;29;20037;-85
2022/06/12 09:31:25;;;;;;;13.90;3.90;;;25.40;91.50;;;;;;4863984;29;20104;-85
2022/06/12 09:34:25;;;;;;;13.50;3.78;;;25.70;89.10;;;;;;4848229;29;20037;-85
2022/06/12 09:38:18;;;;;;;12.18;3.50;;;25.90;88.50;;;;;;4847647;29;20045;-85
2022/06/12 09:40:27;;;;;;;14.30;3.90;;;26.00;87.10;;;;;;4863561;29;20055;-85
2022/06/12 09:43:16;;;;;;;13.73;3.70;;;26.40;80.80;;;;;;4863542;29;20045;-85
2022/06/12 09:45:47;;;;;;;11.38;3.28;;;26.20;75.50;;;;;;4838352;29;20139;-85
2022/06/12 09:48:40;;;;;;;12.93;3.70;;;25.90;74.60;;;;;;4848191;29;20091;-85
2022/06/12 09:51:26;;;;;;;11.40;3.63;;;25.50;68.50;;;;;;4859209;29;20037;-85
2022/06/12 09:54:14;;;;;;;9.95;3.10;;;25.00;74.80;;;;;;4857448;29;20437;-85
2022/06/12 09:56:47;;;;;;;13.77;3.60;;;24.60;79.80;;;;;;4852659;29;20048;-85
2022/06/12 09:59:44;;;;;;;13.23;3.60;;;24.20;87.30;;;;;;4863607;29;20108;-85
2022/06/12 10:02:24;;;;;;;10.45;2.80;;;24.30;84.60;;;;;;4847352;29;20091;-85
2022/06/12 10:05:13;;;;;;;10.73;3.00;;;24.60;85.00;;;;;;4862497;29;20139;-85
2022/06/12 10:08:03;;;;;;;11.80;3.22;;;25.10;93.30;;;;;;4862153;29;20057;-85
2022/06/12 10:10:36;;;;;;;11.93;3.33;;;25.50;80.50;;;;;;4848236;29;20458;-85
2022/06/12 10:13:07;;;;;;;11.93;3.00;;;25.80;76.30;;;;;;4862785;29;20102;-85
2022/06/12 10:15:36;;;;;;;;;;;25.50;73.70;;;;;;4846746;29;20123;-85
2022/06/12 10:18:27;;;;;;;9.63;2.78;;;25.00;69.90;;;;;;4862698;29;19919;-85
2022/06/12 10:21:00;;;;;;;9.60;3.10;;;24.50;73.80;;;;;;4870214;29;20052;-84
2022/06/12 10:23:26;;;;;;;11.45;3.15;;;24.40;77.90;;;;;;4847026;29;20127;-85
2022/06/12 10:25:56;;;;;;;10.77;2.97;;;24.60;87.00;;;;;;4832847;29;20123;-85
2022/06/12 10:28:27;;;;;;;13.02;2.70;;;24.90;89.20;;;;;;4862757;29;20076;-85
2022/06/12 10:30:59;;;;;;;9.07;2.72;;;25.30;84.80;;;;;;4847409;29;20124;-85
2022/06/12 10:33:30;;;;;;;10.05;2.85;;;25.60;68.10;;;;;;4862756;29;20147;-85
2022/06/12 10:36:00;;;;;;;;;;;25.50;64.00;;;;;;4863040;29;20413;-85
2022/06/12 10:38:36;;;;;;;8.73;2.50;;;25.50;65.90;;;;;;4847090;29;19924;-85
2022/06/12 10:41:18;;;;;;;8.95;2.60;;;25.40;65.90;;;;;;4847422;29;20080;-85
2022/06/12 10:43:48;;;;;;;8.20;2.40;;;25.40;62.80;;;;;;4862407;29;20041;-85
2022/06/12 10:46:14;;;;;;;8.90;2.80;;;25.40;60.10;;;;;;4847341;29;20041;-84
2022/06/12 10:48:40;;;;;;;7.47;2.40;;;25.30;57.60;;;;;;4846992;29;20089;-84
2022/06/12 10:51:23;;;;;;;6.93;2.33;;;25.40;57.80;;;;;;4862156;29;20069;-84
2022/06/12 10:54:00;;;;;;;9.85;2.33;;;25.50;61.20;;;;;;4855072;29;20114;-84
2022/06/12 10:56:47;;;;;;;9.30;2.42;;;25.50;58.00;;;;;;4862396;29;20048;-84
2022/06/12 10:59:32;;;;;;;8.50;2.33;;;25.40;61.00;;;;;;4862047;29;20052;-85
2022/06/12 11:02:24;;;;;;;7.57;2.40;;;25.50;57.60;;;;;;4847068;29;20157;-84
2022/06/12 11:05:12;;;;;;;9.60;2.20;;;25.50;62.40;;;;;;4848739;29;20080;-84
2022/06/12 11:07:44;;;;;;;8.80;2.30;;;25.70;61.50;;;;;;4872907;29;20085;-85
2022/06/12 11:10:30;;;;;;;8.25;2.20;;;25.50;56.40;;;;;;4829700;29;20117;-85
2022/06/12 11:13:16;;;;;;;7.82;2.20;;;25.20;55.10;;;;;;4853578;29;20053;-85
2022/06/12 11:16:19;;;;;;;8.98;2.20;;;24.90;54.80;;;;;;4835226;29;20054;-85
2022/06/12 11:18:50;;;;;;;8.45;2.20;;;24.80;58.50;;;;;;4836161;29;20077;-85
2022/06/12 11:21:26;;;;;;;7.53;2.17;;;24.90;60.30;;;;;;4826443;29;20050;-85
2022/06/12 11:24:18;;;;;;;7.18;2.10;;;24.90;60.10;;;;;;4822605;29;20056;-85
2022/06/12 11:26:53;;;;;;;9.68;2.20;;;24.80;62.10;;;;;;4835159;29;20486;-85
2022/06/12 11:29:44;;;;;;;8.63;2.20;;;24.40;58.60;;;;;;4842972;29;20485;-85
2022/06/12 11:32:30;;;;;;;6.78;1.77;;;24.30;59.80;;;;;;4837751;29;20042;-85
2022/06/12 11:35:07;;;;;;;8.00;2.28;;;24.30;57.10;;;;;;4840007;29;20071;-85
2022/06/12 11:37:54;;;;;;;6.93;2.00;;;24.30;57.20;;;;;;4825238;29;20513;-85
2022/06/12 11:40:46;;;;;;;7.68;2.05;;;24.50;66.80;;;;;;4825427;29;20494;-85
2022/06/12 11:43:11;;;;;;;;;;;24.70;62.00;;;;;;4817685;29;20134;-86
2022/06/12 11:46:05;;;;;;;8.25;1.92;;;24.80;51.10;;;;;;4858387;29;20324;-85
2022/06/12 11:49:02;;;;;;;7.53;1.90;;;24.80;52.80;;;;;;4829588;29;20049;-85
2022/06/12 11:52:00;;;;;;;6.90;1.77;;;24.70;51.70;;;;;;4861261;29;20482;-85
2022/06/12 11:54:29;;;;;;;6.35;1.60;;;24.70;52.70;;;;;;4827677;29;20397;-85
2022/06/12 11:57:25;;;;;;;6.63;2.00;;;24.70;52.60;;;;;;4865044;29;20083;-85
2022/06/12 12:00:14;;;;;;;6.20;1.75;;;24.70;53.50;;;;;;4831594;29;20050;-85
2022/06/12 12:02:49;;;;;;;7.63;1.80;;;24.80;55.30;;;;;;4843284;29;20058;-86
2022/06/12 12:05:36;;;;;;;6.47;1.90;;;24.60;52.70;;;;;;4828279;29;20159;-85
2022/06/12 12:08:14;;;;;;;5.82;1.70;;;24.50;52.20;;;;;;4853621;29;20391;-85
2022/06/12 12:10:58;;;;;;;6.07;1.58;;;24.50;50.60;;;;;;4847386;29;20386;-85
2022/06/12 12:13:29;;;;;;;6.32;1.73;;;24.60;54.10;;;;;;4834090;29;20048;-85
2022/06/12 12:16:00;;;;;;;6.03;1.52;;;24.40;52.30;;;;;;4846841;29;20050;-85
2022/06/12 12:18:40;;;;;;;6.10;1.63;;;24.50;53.50;;;;;;4859213;29;20049;-84
2022/06/12 12:21:25;;;;;;;5.70;1.50;;;24.40;50.70;;;;;;4886889;29;20561;-85
2022/06/12 12:23:52;;;;;;;6.90;1.58;;;24.20;51.60;;;;;;4851288;29;20390;-85
2022/06/12 12:26:33;;;;;;;5.63;1.40;;;24.20;50.10;;;;;;4846402;29;20045;-85
2022/06/12 12:29:06;;;;;;;6.18;1.50;;;24.10;49.10;;;;;;4861805;29;20057;-85
2022/06/12 12:31:33;;;;;;;5.05;1.60;;;24.20;49.90;;;;;;4845809;29;20485;-85
2022/06/12 12:34:03;;;;;;;6.20;1.70;;;24.40;50.90;;;;;;4831538;29;20056;-85
2022/06/12 12:42:36;;;;;;;8.23;2.13;;;24.20;51.00;;;;;;4859174;29;20053;-86
2022/06/12 12:45:26;;;;;;;6.70;1.80;;;23.80;50.80;;;;;;4844943;29;20054;-85
2022/06/12 12:48:05;;;;;;;7.82;1.75;;;23.60;52.60;;;;;;4841264;29;20041;-85
2022/06/12 12:50:41;;;;;;;6.60;1.70;;;23.70;50.30;;;;;;4843009;29;20041;-86
2022/06/12 12:53:18;;;;;;;5.40;1.80;;;23.80;52.90;;;;;;4856020;29;20041;-85
2022/06/12 12:55:43;;;;;;;6.72;1.63;;;23.90;54.20;;;;;;4846345;29;20560;-85
2022/06/12 12:58:19;;;;;;;7.93;1.80;;;24.00;50.30;;;;;;4875749;29;20121;-84
2022/06/12 13:00:46;;;;;;;5.90;1.70;;;24.10;50.20;;;;;;4891539;29;20047;-85
2022/06/12 13:03:27;;;;;;;5.57;1.63;;;24.00;50.80;;;;;;4858637;29;20046;-85
2022/06/12 13:06:16;;;;;;;5.97;1.57;;;24.20;49.90;;;;;;4857814;29;20386;-85
2022/06/12 13:09:04;;;;;;;5.70;1.50;;;24.20;49.70;;;;;;4885722;29;20140;-86
2022/06/12 13:12:01;;;;;;;5.82;1.60;;;24.30;49.50;;;;;;4871431;29;20096;-85
2022/06/12 13:14:32;;;;;;;5.10;1.52;;;24.20;48.90;;;;;;4859450;29;20102;-85
2022/06/12 13:17:13;;;;;;;;;;;24.20;49.70;;;;;;4889013;29;20051;-85
2022/06/12 13:20:05;;;;;;;4.72;1.48;;;24.20;48.80;;;;;;4854847;29;19924;-85
2022/06/12 13:22:53;;;;;;;5.65;1.50;;;24.00;47.90;;;;;;4832940;29;20041;-85
2022/06/12 13:25:24;;;;;;;5.72;1.50;;;23.90;48.60;;;;;;4889499;29;20057;-85
2022/06/12 13:27:56;;;;;;;5.38;1.50;;;23.90;49.80;;;;;;4859346;29;20068;-86
2022/06/12 13:30:26;;;;;;;;;;;23.90;50.90;;;;;;4859943;29;20116;-85
2022/06/12 13:32:52;;;;;;;5.68;1.58;;;23.90;49.60;;;;;;4874650;29;20060;-85
2022/06/12 13:42:39;;;;;;;7.50;1.80;;;24.00;48.70;;;;;;4835390;29;20116;-85
2022/06/12 13:45:17;;;;;;;6.35;1.85;;;24.10;50.30;;;;;;4878673;29;20045;-86
2022/06/12 13:47:43;;;;;;;6.50;1.70;;;24.20;50.90;;;;;;4870684;29;20496;-85